Time;durP1;ratioP1;P1;durP2;ratioP2;P2;SDS_P1;SDS_P2;PMS_P1;PMS_P2;Temp;Humidity;BMP_temperature;BMP_pressure;BME280_temperature;BME280_humidity;BME280_pressure;Samples;Min_cycle;Max_cycle;Signal;HPM_P1;HPM_P2
2021/11/25 00:01:05;;;;;;;4.5;3.6;;;;;;;;;;;;;
2021/11/25 00:03:34;;;;;;;6.5;3.7;;;;;;;;;;;;;
2021/11/25 00:06:01;;;;;;;6.6;3.9;;;;;;;;;;;;;
2021/11/25 00:08:29;;;;;;;6.1;3.8;;;;;;;;;;;;;
2021/11/25 00:10:57;;;;;;;6.5;3.9;;;;;;;;;;;;;
2021/11/25 00:13:26;;;;;;;4.9;3;;;;;;;;;;;;;
2021/11/25 00:15:52;;;;;;;5;3.3;;;;;;;;;;;;;
2021/11/25 00:18:21;;;;;;;5.2;3.3;;;;;;;;;;;;;
2021/11/25 00:21:03;;;;;;;4;2.8;;;;;;;;;;;;;
2021/11/25 00:23:32;;;;;;;3.4;2.6;;;;;;;;;;;;;
2021/11/25 00:26:00;;;;;;;3.9;2.5;;;;;;;;;;;;;
2021/11/25 00:28:27;;;;;;;4.5;2.8;;;;;;;;;;;;;
2021/11/25 00:30:52;;;;;;;4.4;2.8;;;;;;;;;;;;;
2021/11/25 00:33:26;;;;;;;4.8;2.8;;;;;;;;;;;;;
2021/11/25 00:35:52;;;;;;;6.9;4.9;;;;;;;;;;;;;
2021/11/25 00:38:17;;;;;;;4.5;2.7;;;;;;;;;;;;;
2021/11/25 00:40:43;;;;;;;7.7;4.7;;;;;;;;;;;;;
2021/11/25 00:43:08;;;;;;;8.9;4.9;;;;;;;;;;;;;
2021/11/25 00:45:33;;;;;;;4.8;3;;;;;;;;;;;;;
2021/11/25 00:47:58;;;;;;;5.7;3.3;;;;;;;;;;;;;
2021/11/25 00:50:24;;;;;;;4.4;3;;;;;;;;;;;;;
2021/11/25 00:52:49;;;;;;;4.6;3;;;;;;;;;;;;;
2021/11/25 00:55:16;;;;;;;4.1;3;;;;;;;;;;;;;
2021/11/25 00:57:41;;;;;;;4;2.8;;;;;;;;;;;;;
2021/11/25 01:00:07;;;;;;;5.1;3;;;;;;;;;;;;;
2021/11/25 01:02:32;;;;;;;6.3;3.6;;;;;;;;;;;;;
2021/11/25 01:04:57;;;;;;;4.3;2.7;;;;;;;;;;;;;
2021/11/25 01:07:22;;;;;;;3.8;2.5;;;;;;;;;;;;;
2021/11/25 01:09:49;;;;;;;4.2;2.7;;;;;;;;;;;;;
2021/11/25 01:12:15;;;;;;;3.7;2.3;;;;;;;;;;;;;
2021/11/25 01:14:41;;;;;;;2.7;2.1;;;;;;;;;;;;;
2021/11/25 01:17:06;;;;;;;2.8;1.9;;;;;;;;;;;;;
2021/11/25 01:19:32;;;;;;;3.5;2.2;;;;;;;;;;;;;
2021/11/25 01:21:57;;;;;;;2.9;1.9;;;;;;;;;;;;;
2021/11/25 01:24:24;;;;;;;2.6;2.1;;;;;;;;;;;;;
2021/11/25 01:26:49;;;;;;;3.3;2.2;;;;;;;;;;;;;
2021/11/25 01:29:16;;;;;;;2.5;1.8;;;;;;;;;;;;;
2021/11/25 01:31:41;;;;;;;3.1;1.9;;;;;;;;;;;;;
2021/11/25 01:34:06;;;;;;;2.2;1.7;;;;;;;;;;;;;
2021/11/25 01:36:31;;;;;;;3;2;;;;;;;;;;;;;
2021/11/25 01:38:57;;;;;;;4.1;1.9;;;;;;;;;;;;;
2021/11/25 01:41:22;;;;;;;2.9;1.8;;;;;;;;;;;;;
2021/11/25 01:43:48;;;;;;;2.8;1.8;;;;;;;;;;;;;
2021/11/25 01:46:13;;;;;;;3;2.3;;;;;;;;;;;;;
2021/11/25 01:48:40;;;;;;;2.4;1.7;;;;;;;;;;;;;
2021/11/25 01:51:05;;;;;;;3.3;2.3;;;;;;;;;;;;;
2021/11/25 01:53:31;;;;;;;3.2;2.1;;;;;;;;;;;;;
2021/11/25 01:55:57;;;;;;;2.8;1.7;;;;;;;;;;;;;
2021/11/25 01:58:21;;;;;;;2.3;1.7;;;;;;;;;;;;;
2021/11/25 02:00:46;;;;;;;2.6;1.4;;;;;;;;;;;;;
2021/11/25 02:03:11;;;;;;;4.5;2;;;;;;;;;;;;;
2021/11/25 02:05:37;;;;;;;2.8;1.8;;;;;;;;;;;;;
2021/11/25 02:08:02;;;;;;;4.4;2;;;;;;;;;;;;;
2021/11/25 02:10:28;;;;;;;2.8;1.9;;;;;;;;;;;;;
2021/11/25 02:12:53;;;;;;;3.5;2.1;;;;;;;;;;;;;
2021/11/25 02:15:24;;;;;;;3.2;2.1;;;;;;;;;;;;;
2021/11/25 02:17:51;;;;;;;3.1;1.8;;;;;;;;;;;;;
2021/11/25 02:20:16;;;;;;;2.9;1.8;;;;;;;;;;;;;
2021/11/25 02:22:42;;;;;;;2.3;1.6;;;;;;;;;;;;;
2021/11/25 02:25:08;;;;;;;2.6;1.8;;;;;;;;;;;;;
2021/11/25 02:27:33;;;;;;;1.9;1.4;;;;;;;;;;;;;
2021/11/25 02:29:59;;;;;;;2.8;1.6;;;;;;;;;;;;;
2021/11/25 02:32:23;;;;;;;2.6;1.8;;;;;;;;;;;;;
2021/11/25 02:34:49;;;;;;;3.4;2.4;;;;;;;;;;;;;
2021/11/25 02:37:15;;;;;;;3.4;2.4;;;;;;;;;;;;;
2021/11/25 02:39:40;;;;;;;2.8;1.7;;;;;;;;;;;;;
2021/11/25 02:42:06;;;;;;;3;2;;;;;;;;;;;;;
2021/11/25 02:44:31;;;;;;;3.4;2.1;;;;;;;;;;;;;
2021/11/25 02:47:00;;;;;;;1.9;1.5;;;;;;;;;;;;;
2021/11/25 02:49:23;;;;;;;2.6;1.7;;;;;;;;;;;;;
2021/11/25 02:51:48;;;;;;;3.1;1.7;;;;;;;;;;;;;
2021/11/25 02:54:13;;;;;;;2.7;1.9;;;;;;;;;;;;;
2021/11/25 02:56:40;;;;;;;2.9;1.6;;;;;;;;;;;;;
2021/11/25 02:59:05;;;;;;;2.4;1.6;;;;;;;;;;;;;
2021/11/25 03:01:30;;;;;;;1.9;1.5;;;;;;;;;;;;;
2021/11/25 03:06:21;;;;;;;1.8;1.4;;;;;;;;;;;;;
2021/11/25 03:08:46;;;;;;;2.1;1.4;;;;;;;;;;;;;
2021/11/25 03:11:11;;;;;;;2.3;1.5;;;;;;;;;;;;;
2021/11/25 03:13:36;;;;;;;1.5;1.4;;;;;;;;;;;;;
2021/11/25 03:16:03;;;;;;;2;1.6;;;;;;;;;;;;;
2021/11/25 03:18:31;;;;;;;3;1.6;;;;;;;;;;;;;
2021/11/25 03:21:04;;;;;;;2.1;1.8;;;;;;;;;;;;;
2021/11/25 03:23:22;;;;;;;3.6;2;;;;;;;;;;;;;
2021/11/25 03:25:47;;;;;;;3.8;2;;;;;;;;;;;;;
2021/11/25 03:28:12;;;;;;;3.2;1.8;;;;;;;;;;;;;
2021/11/25 03:30:37;;;;;;;4.2;2.1;;;;;;;;;;;;;
2021/11/25 03:33:02;;;;;;;4.9;2.4;;;;;;;;;;;;;
2021/11/25 03:35:27;;;;;;;5.4;2.5;;;;;;;;;;;;;
2021/11/25 03:37:53;;;;;;;3.3;1.6;;;;;;;;;;;;;
2021/11/25 03:40:18;;;;;;;2.2;1.5;;;;;;;;;;;;;
2021/11/25 03:42:44;;;;;;;3.1;1.4;;;;;;;;;;;;;
2021/11/25 03:45:10;;;;;;;1.9;1.3;;;;;;;;;;;;;
2021/11/25 03:47:36;;;;;;;2.2;1.6;;;;;;;;;;;;;
2021/11/25 03:50:01;;;;;;;2.2;1.8;;;;;;;;;;;;;
2021/11/25 03:52:27;;;;;;;1.9;1.4;;;;;;;;;;;;;
2021/11/25 03:54:54;;;;;;;2.9;1.4;;;;;;;;;;;;;
2021/11/25 03:57:19;;;;;;;2.4;1.5;;;;;;;;;;;;;
2021/11/25 03:59:44;;;;;;;3.2;2;;;;;;;;;;;;;
2021/11/25 04:02:31;;;;;;;2.8;1.8;;;;;;;-0.06;93.14648;930.2963;;;;
2021/11/25 04:04:56;;;;;;;2.5;1.9;;;;;;;-0.11;93.58008;930.3133;;;;
2021/11/25 04:07:25;;;;;;;2.8;2.2;;;;;;;-0.02;93.40137;930.366;;;;
2021/11/25 04:09:50;;;;;;;2.2;2;;;;;;;0.11;92.37988;930.3267;;;;
2021/11/25 04:12:15;;;;;;;4.1;2.1;;;;;;;0.23;91.34863;930.375;;;;
2021/11/25 04:14:45;;;;;;;4.3;2.3;;;;;;;0.19;90.83984;930.3405;;;;
2021/11/25 04:17:18;;;;;;;3.1;2;;;;;;;0.21;90.30859;930.3564;;;;
2021/11/25 04:19:43;;;;;;;2.5;2;;;;;;;0.03;91.70703;930.2567;;;;
2021/11/25 04:22:08;;;;;;;2.3;1.6;;;;;;;-0.14;91.94824;930.1892;;;;
2021/11/25 04:24:37;;;;;;;3.1;1.9;;;;;;;-0.16;92.34473;930.202;;;;
2021/11/25 04:27:02;;;;;;;2.5;1.8;;;;;;;-0.07;91.5625;930.1864;;;;
2021/11/25 04:29:31;;;;;;;4.1;2.1;;;;;;;-0.44;93.17383;930.0779;;;;
2021/11/25 04:36:50;;;;;;;7.1;3.8;;;;;;;-0.52;94.45801;930.0233;;;;
2021/11/25 04:39:19;;;;;;;8.1;3.9;;;;;;;-0.52;94.54688;930.0773;;;;
2021/11/25 04:42:21;;;;;;;9.2;3.9;;;;;;;-0.51;94.34668;929.9594;;;;
2021/11/25 04:44:50;;;;;;;6;2.8;;;;;;;-0.48;94.36719;929.9694;;;;
2021/11/25 04:47:16;;;;;;;4.8;2.9;;;;;;;-0.25;93.73926;930.0028;;;;
2021/11/25 04:49:42;;;;;;;5.2;3;;;;;;;-0.15;92.82617;929.9982;;;;
2021/11/25 04:52:07;;;;;;;4.4;2.6;;;;;;;-0.14;92.7168;929.9836;;;;
2021/11/25 04:54:34;;;;;;;3.3;2.4;;;;;;;-0.23;93.64453;929.9395;;;;
2021/11/25 04:56:59;;;;;;;4;2;;;;;;;-0.27;94.01367;929.9403;;;;
2021/11/25 05:03:18;;;;;;;3.7;2.2;;;;;;;-0.06;92.85449;929.9448;;;;
2021/11/25 05:05:34;;;;;;;3.8;3;;;;;;;-0.08;92.4834;929.9207;;;;
2021/11/25 05:07:59;;;;;;;5.4;2.7;;;;;;;-0.19;93.71777;929.7941;;;;
2021/11/25 05:10:28;;;;;;;4.1;2.4;;;;;;;-0.06;93.81445;929.8706;;;;
2021/11/25 05:12:57;;;;;;;5.6;2.9;;;;;;;0.09;93.62402;929.8886;;;;
2021/11/25 05:15:25;;;;;;;6.1;2.7;;;;;;;0.21;92.58203;929.8501;;;;
2021/11/25 05:17:52;;;;;;;5.6;3.2;;;;;;;0.19;92.16602;929.8748;;;;
2021/11/25 05:20:17;;;;;;;3.8;2.4;;;;;;;0.02;91.72559;929.8549;;;;
2021/11/25 05:22:45;;;;;;;5;3;;;;;;;-0.19;91.94727;929.8214;;;;
2021/11/25 05:25:10;;;;;;;4.9;2.3;;;;;;;-0.25;92.60352;929.7769;;;;
2021/11/25 05:27:38;;;;;;;3.2;2.2;;;;;;;-0.11;92.09863;929.7516;;;;
2021/11/25 05:30:03;;;;;;;3.3;2.5;;;;;;;0.01;92.49414;929.7192;;;;
2021/11/25 05:32:31;;;;;;;4.1;2.1;;;;;;;0.02;91.89453;929.6641;;;;
2021/11/25 05:34:57;;;;;;;4.9;2.6;;;;;;;-0.01;92.30957;929.6603;;;;
2021/11/25 05:37:26;;;;;;;3.9;2.6;;;;;;;0.01;92.72754;929.6432;;;;
2021/11/25 05:39:51;;;;;;;5.3;2.9;;;;;;;-0.11;93.32324;929.5995;;;;
2021/11/25 05:42:17;;;;;;;4.7;3.1;;;;;;;-0.11;93.43457;929.6372;;;;
2021/11/25 05:44:42;;;;;;;5.2;3.1;;;;;;;-0.03;93.38574;929.7332;;;;
2021/11/25 05:47:09;;;;;;;6.2;3.7;;;;;;;0.11;92.49121;929.6599;;;;
2021/11/25 05:49:34;;;;;;;6.4;4;;;;;;;0.17;91.37988;929.5714;;;;
2021/11/25 05:51:59;;;;;;;7.2;4.5;;;;;;;0.09;91.75195;929.6209;;;;
2021/11/25 05:54:26;;;;;;;5.6;4.1;;;;;;;0.14;91.39648;929.6875;;;;
2021/11/25 05:56:51;;;;;;;6.1;4.4;;;;;;;-0.13;91.88281;929.6547;;;;
2021/11/25 05:59:18;;;;;;;4.9;3.9;;;;;;;-0.09;92.39258;929.6801;;;;
2021/11/25 06:01:46;;;;;;;5.6;4.5;;;;;;;-0.02;92.12012;929.7453;;;;
2021/11/25 06:04:12;;;;;;;7.3;4.3;;;;;;;0.03;91.83887;929.7667;;;;
2021/11/25 06:06:39;;;;;;;3.9;3.4;;;;;;;0.1;90.71973;929.7614;;;;
2021/11/25 06:09:04;;;;;;;5.5;3.2;;;;;;;0.02;91.15723;929.7327;;;;
2021/11/25 06:11:34;;;;;;;7.5;4.8;;;;;;;-0.13;91.37109;929.8212;;;;
2021/11/25 06:14:47;;;;;;;6.2;3.5;;;;;;;-0.24;91.75977;929.8092;;;;
2021/11/25 06:17:12;;;;;;;5.7;3.3;;;;;;;-0.22;92.6543;929.7974;;;;
2021/11/25 06:19:42;;;;;;;6.8;4.7;;;;;;;-0.1;92.22461;929.7872;;;;
2021/11/25 06:22:13;;;;;;;10.9;6.5;;;;;;;0.08;91.04785;929.7975;;;;
2021/11/25 06:30:44;;;;;;;9.7;5.8;;;;;;;-0.44;86.72852;929.7109;;;;
2021/11/25 06:33:15;;;;;;;12.6;5.8;;;;;;;-0.4;86.4375;929.6936;;;;
2021/11/25 06:35:45;;;;;;;10.8;6.2;;;;;;;-0.46;86.72656;929.7215;;;;
2021/11/25 06:38:10;;;;;;;8.7;6;;;;;;;-0.39;86.58398;929.6161;;;;
2021/11/25 06:40:38;;;;;;;9.5;5.7;;;;;;;-0.54;86.85352;929.6628;;;;
2021/11/25 06:43:03;;;;;;;10.3;6.1;;;;;;;-0.8;87.14551;929.5851;;;;
2021/11/25 06:45:33;;;;;;;11.1;6.5;;;;;;;-0.7;87.91113;929.5692;;;;
2021/11/25 06:48:02;;;;;;;12.7;6.9;;;;;;;-0.66;88.18555;929.5909;;;;
2021/11/25 06:50:27;;;;;;;13.5;8.5;;;;;;;-0.72;89.46289;929.4925;;;;
2021/11/25 06:52:54;;;;;;;13.5;7.2;;;;;;;-0.58;90.48535;929.5154;;;;
2021/11/25 06:55:19;;;;;;;14.4;7.8;;;;;;;-0.55;91.02344;929.5201;;;;
2021/11/25 06:57:48;;;;;;;13.8;7.5;;;;;;;-0.69;92.29492;929.5344;;;;
2021/11/25 07:00:14;;;;;;;11.8;6;;;;;;;-0.74;93.33008;929.4888;;;;
2021/11/25 07:02:39;;;;;;;13.7;7.7;;;;;;;-0.66;93.39063;929.4785;;;;
2021/11/25 07:05:05;;;;;;;14.9;8.5;;;;;;;-0.55;93.48145;929.4451;;;;
2021/11/25 07:07:29;;;;;;;19.4;11.1;;;;;;;-0.49;93.74023;929.5153;;;;
2021/11/25 07:09:55;;;;;;;23.9;13.1;;;;;;;-0.18;93.10742;929.5808;;;;
2021/11/25 07:12:21;;;;;;;23.1;11.9;;;;;;;-0.01;91.92188;929.6964;;;;
2021/11/25 07:14:49;;;;;;;19.2;10.8;;;;;;;-0.19;90.38867;929.6711;;;;
2021/11/25 07:17:18;;;;;;;15;9.1;;;;;;;-0.2;90.36621;929.6475;;;;
2021/11/25 07:19:48;;;;;;;16.3;9.2;;;;;;;-0.18;87.23047;929.6303;;;;
2021/11/25 07:22:17;;;;;;;17.9;10.4;;;;;;;-0.24;86.15918;929.5642;;;;
2021/11/25 07:24:42;;;;;;;17.2;11;;;;;;;0.49;86.41992;929.537;;;;
2021/11/25 07:27:09;;;;;;;13.9;7.7;;;;;;;1.3;80.58398;929.5184;;;;
2021/11/25 07:29:35;;;;;;;11;7.6;;;;;;;1.6;77.89063;929.4135;;;;
2021/11/25 07:32:01;;;;;;;11.4;7.6;;;;;;;1.93;78.35645;929.3315;;;;
2021/11/25 07:34:26;;;;;;;12.5;7.7;;;;;;;1.95;76.83594;929.5244;;;;
2021/11/25 07:36:52;;;;;;;10.8;7.1;;;;;;;2.33;75.36035;929.4854;;;;
2021/11/25 07:39:17;;;;;;;10.8;6.7;;;;;;;3.23;72.91504;929.4069;;;;
2021/11/25 07:41:44;;;;;;;9.8;6.8;;;;;;;3.95;68.30566;929.4944;;;;
2021/11/25 07:44:09;;;;;;;10.3;6.7;;;;;;;4.23;66.24512;929.5003;;;;
2021/11/25 07:46:35;;;;;;;17.7;8.1;;;;;;;4.96;65.46973;929.3742;;;;
2021/11/25 07:49:02;;;;;;;13.4;9.2;;;;;;;4.9;64.18848;929.4545;;;;
2021/11/25 07:51:25;;;;;;;13.4;7.8;;;;;;;4.85;64.30371;929.4467;;;;
2021/11/25 07:53:52;;;;;;;9.9;6.7;;;;;;;4.92;64.12207;929.394;;;;
2021/11/25 07:56:17;;;;;;;10.6;6.8;;;;;;;5.76;62.38672;929.2881;;;;
2021/11/25 07:58:44;;;;;;;13;6.6;;;;;;;6.39;60.39746;929.3052;;;;
2021/11/25 08:01:09;;;;;;;11.2;6.7;;;;;;;7.5;57.03809;929.1806;;;;
2021/11/25 08:03:35;;;;;;;9.8;6.3;;;;;;;8.3;54.98633;929.2989;;;;
2021/11/25 08:06:00;;;;;;;9.6;5.8;;;;;;;8.29;55.48438;929.291;;;;
2021/11/25 08:08:27;;;;;;;8.9;6;;;;;;;8.31;54.375;929.2473;;;;
2021/11/25 08:10:52;;;;;;;11.1;6.3;;;;;;;8.5;53.18164;929.2445;;;;
2021/11/25 08:13:18;;;;;;;12.5;6.9;;;;;;;8.18;54.20996;929.257;;;;
2021/11/25 08:15:45;;;;;;;28.5;17.1;;;;;;;7.32;56.13184;929.207;;;;
2021/11/25 08:18:10;;;;;;;28.8;17.5;;;;;;;6.89;60.15039;929.1429;;;;
2021/11/25 08:20:36;;;;;;;24.8;16.6;;;;;;;7.23;59.06445;929.1898;;;;
2021/11/25 08:25:29;;;;;;;16.6;11.1;;;;;;;9.21;52.98535;929.1612;;;;
2021/11/25 08:27:55;;;;;;;19.2;12;;;;;;;9.07;52.71973;929.17;;;;
2021/11/25 08:30:23;;;;;;;13.4;8.8;;;;;;;9.09;53.00488;929.127;;;;
2021/11/25 08:32:47;;;;;;;17.5;10.7;;;;;;;9.02;54.16895;929.1121;;;;
2021/11/25 08:35:15;;;;;;;17.7;11.3;;;;;;;8.66;54.7832;929.1484;;;;
2021/11/25 08:37:41;;;;;;;22.3;13.6;;;;;;;8.37;55.7793;929.1749;;;;
2021/11/25 08:40:07;;;;;;;23.6;13.5;;;;;;;7.56;58.89551;929.1533;;;;
2021/11/25 08:42:32;;;;;;;24.8;14.4;;;;;;;7.11;60.47754;929.1459;;;;
2021/11/25 08:47:23;;;;;;;17.6;10.6;;;;;;;5.82;66.15527;929.1817;;;;
2021/11/25 08:49:48;;;;;;;18.8;11.9;;;;;;;5.5;67.50391;929.1494;;;;
2021/11/25 08:52:14;;;;;;;17.6;10.5;;;;;;;5.29;68.63281;929.1802;;;;
2021/11/25 08:54:39;;;;;;;20;9.9;;;;;;;5;70.61719;929.1675;;;;
2021/11/25 08:57:05;;;;;;;19.2;11.4;;;;;;;4.84;71.65918;929.2982;;;;
2021/11/25 08:59:30;;;;;;;19.7;11.6;;;;;;;4.59;72.72168;929.258;;;;
2021/11/25 09:01:56;;;;;;;20.2;12.8;;;;;;;4.66;72.84668;929.2288;;;;
2021/11/25 09:04:22;;;;;;;21.2;12.1;;;;;;;4.27;74.5;929.2049;;;;
2021/11/25 09:06:49;;;;;;;20.7;12.5;;;;;;;4.1;76.125;929.2275;;;;
2021/11/25 09:09:14;;;;;;;21.5;12.4;;;;;;;4.51;75.28613;929.0864;;;;
2021/11/25 09:11:40;;;;;;;18.5;11;;;;;;;4.65;75.0293;929.1758;;;;
2021/11/25 09:14:05;;;;;;;21.1;12.7;;;;;;;4.85;73.95996;929.1691;;;;
2021/11/25 09:16:32;;;;;;;50.5;28.4;;;;;;;5.08;72.95117;929.124;;;;
2021/11/25 09:19:01;;;;;;;39.5;23.1;;;;;;;4.62;73.73926;929.1775;;;;
2021/11/25 09:25:11;;;;;;;19.9;12.3;;;;;;;4.7;74.96973;929.0433;;;;
2021/11/25 09:27:36;;;;;;;15.6;9.3;;;;;;;4.87;74.61914;929.0889;;;;
2021/11/25 09:30:03;;;;;;;13.7;8.1;;;;;;;4.85;74.36621;929.1691;;;;
2021/11/25 09:32:28;;;;;;;12.3;8.3;;;;;;;5.25;74.61621;929.1291;;;;
2021/11/25 09:34:56;;;;;;;12.5;7.7;;;;;;;5.63;73.06934;929.0511;;;;
2021/11/25 09:37:21;;;;;;;9.5;6.3;;;;;;;5.87;69.51758;928.9517;;;;
2021/11/25 09:39:49;;;;;;;13.8;7.7;;;;;;;6.05;71.97461;928.9487;;;;
2021/11/25 09:42:15;;;;;;;9.6;6.9;;;;;;;6.28;71.4834;928.9254;;;;
2021/11/25 09:44:44;;;;;;;12.5;6.8;;;;;;;6.56;70.51172;928.9086;;;;
2021/11/25 09:47:08;;;;;;;11.3;6.6;;;;;;;6.77;68.88184;928.9084;;;;
2021/11/25 09:49:34;;;;;;;11.6;5.6;;;;;;;6.65;69.40625;928.8717;;;;
2021/11/25 09:51:59;;;;;;;8.8;5.4;;;;;;;6.84;68.32813;928.7747;;;;
2021/11/25 09:54:24;;;;;;;6.5;4.6;;;;;;;6.98;66.18652;928.6831;;;;
2021/11/25 09:56:49;;;;;;;6.9;4.5;;;;;;;7.06;65.32715;928.7545;;;;
2021/11/25 09:59:14;;;;;;;7.6;4.3;;;;;;;7;68.4668;928.7158;;;;
2021/11/25 10:01:41;;;;;;;5.6;3.4;;;;;;;7.27;65.16699;928.6809;;;;
2021/11/25 10:07:40;;;;;;;4.7;2.9;;;;;;;7.47;62.88477;928.6063;;;;
2021/11/25 10:10:03;;;;;;;5.6;3.2;;;;;;;7.67;63.67383;928.5497;;;;
2021/11/25 10:12:31;;;;;;;4;2.8;;;;;;;7.78;62.92969;928.4885;;;;
2021/11/25 10:14:53;;;;;;;6.5;3.3;;;;;;;7.89;62.50293;928.4875;;;;
2021/11/25 10:17:18;;;;;;;3.4;2.8;;;;;;;8.02;61.77344;928.5422;;;;
2021/11/25 10:19:44;;;;;;;7.3;3.4;;;;;;;8.16;61.4082;928.5576;;;;
2021/11/25 10:22:09;;;;;;;6.1;3.3;;;;;;;8.29;61.5625;928.4788;;;;
2021/11/25 10:24:36;;;;;;;8.6;3.8;;;;;;;8.4;61.9873;928.465;;;;
2021/11/25 10:27:01;;;;;;;10.7;5.4;;;;;;;8.41;63.44238;928.413;;;;
2021/11/25 10:29:29;;;;;;;14.1;6.6;;;;;;;8.13;66.93262;928.3862;;;;
2021/11/25 10:31:54;;;;;;;12.2;6.6;;;;;;;7.89;68.03125;928.3805;;;;
2021/11/25 10:34:23;;;;;;;15.1;8.2;;;;;;;7.68;68.7334;928.3969;;;;
2021/11/25 10:37:02;;;;;;;16.2;9;;;;;;;7.77;68.66895;928.3837;;;;
2021/11/25 10:39:26;;;;;;;12.5;7.4;;;;;;;7.48;69.13281;928.3601;;;;
2021/11/25 10:41:38;;;;;;;11.8;7.1;;;;;;;6.81;70.49707;928.3884;;;;
2021/11/25 10:44:03;;;;;;;10.1;5.7;;;;;;;6.95;69.35254;928.3822;;;;
2021/11/25 10:46:30;;;;;;;8.6;5.2;;;;;;;6.63;70.27441;928.4136;;;;
2021/11/25 10:48:55;;;;;;;9.4;5.1;;;;;;;6.4;69.81934;928.4152;;;;
2021/11/25 10:51:20;;;;;;;8.7;5.2;;;;;;;5.9;71.4873;928.4411;;;;
2021/11/25 10:53:45;;;;;;;8.1;5.1;;;;;;;5.99;71.64844;928.4001;;;;
2021/11/25 10:56:12;;;;;;;8.1;5.6;;;;;;;6.11;70.76465;928.3354;;;;
2021/11/25 10:58:37;;;;;;;9;5.4;;;;;;;6.22;69.4375;928.4244;;;;
2021/11/25 11:01:04;;;;;;;7.4;5.1;;;;;;;5.78;70.40527;928.4914;;;;
2021/11/25 11:03:29;;;;;;;7.7;4.7;;;;;;;5.56;70.73242;928.5186;;;;
2021/11/25 11:05:56;;;;;;;7.7;4.8;;;;;;;5.47;70.71582;928.5742;;;;
2021/11/25 11:08:24;;;;;;;5.2;4.1;;;;;;;5.27;71.99121;928.5162;;;;
2021/11/25 11:10:50;;;;;;;6.3;4.2;;;;;;;5.38;71.39063;928.5002;;;;
2021/11/25 11:13:32;;;;;;;5.5;3.9;;;;;;;5.47;70.79492;928.5427;;;;
2021/11/25 11:15:55;;;;;;;5.5;4.1;;;;;;;5.73;71.22168;928.4908;;;;
2021/11/25 11:20:35;;;;;;;7.3;4.2;;;;;;;5.85;71.65918;928.3242;;;;
2021/11/25 11:23:00;;;;;;;6.6;5;;;;;;;5.82;71.01074;928.2608;;;;
2021/11/25 11:25:41;;;;;;;7.2;4.9;;;;;;;5.94;70.74805;928.3176;;;;
2021/11/25 11:28:04;;;;;;;7;4.8;;;;;;;6.32;69.5332;928.2981;;;;
2021/11/25 11:30:32;;;;;;;5.4;4.5;;;;;;;6.64;68.56738;928.367;;;;
2021/11/25 11:32:57;;;;;;;5.4;4.3;;;;;;;6.89;67.68945;928.3414;;;;
2021/11/25 11:35:27;;;;;;;5.7;4.2;;;;;;;6.69;68.25977;928.3026;;;;
2021/11/25 11:37:58;;;;;;;5.1;3.7;;;;;;;6.7;66.93652;928.2037;;;;
2021/11/25 11:40:22;;;;;;;6.1;4;;;;;;;6.78;67.27734;928.1767;;;;
2021/11/25 11:42:48;;;;;;;6.5;4.4;;;;;;;6.71;68.00195;928.0986;;;;
2021/11/25 11:45:15;;;;;;;6.6;4.8;;;;;;;6.51;69.02148;928.0873;;;;
2021/11/25 11:47:38;;;;;;;7.1;4.5;;;;;;;6.16;71.03223;928.0031;;;;
2021/11/25 11:50:05;;;;;;;7.3;5;;;;;;;6.01;72.87402;928.0334;;;;
2021/11/25 11:52:32;;;;;;;5.9;4.7;;;;;;;6.08;71.49414;927.9881;;;;
2021/11/25 11:54:56;;;;;;;6.8;4.6;;;;;;;6.28;71.58496;927.9358;;;;
2021/11/25 11:57:22;;;;;;;7.6;3.9;;;;;;;6.27;70.18164;927.9253;;;;
2021/11/25 11:59:51;;;;;;;5.1;4.1;;;;;;;6.51;69.58691;927.8224;;;;
2021/11/25 12:02:16;;;;;;;4.6;3.8;;;;;;;6.84;69.36914;927.8031;;;;
2021/11/25 12:04:41;;;;;;;5.4;4.1;;;;;;;7.04;68.7334;927.8054;;;;
2021/11/25 12:07:07;;;;;;;6.1;4.3;;;;;;;7.38;67.80176;927.6878;;;;
2021/11/25 12:09:32;;;;;;;5.4;4;;;;;;;7.74;66.09961;927.6547;;;;
2021/11/25 12:11:59;;;;;;;4.8;3.9;;;;;;;7.82;65.5332;927.5854;;;;
2021/11/25 12:14:26;;;;;;;5.2;3.5;;;;;;;7.9;64.49121;927.462;;;;
2021/11/25 12:16:51;;;;;;;6;3.8;;;;;;;8.05;64.26367;927.503;;;;
2021/11/25 12:19:16;;;;;;;5.5;4;;;;;;;8.31;63.21191;927.463;;;;
2021/11/25 12:21:41;;;;;;;11.8;4.2;;;;;;;8.42;62.8877;927.4984;;;;
2021/11/25 12:24:08;;;;;;;10;4.4;;;;;;;7.93;65.01758;927.489;;;;
2021/11/25 12:26:33;;;;;;;7.1;4;;;;;;;8.25;63.78223;927.348;;;;
2021/11/25 12:28:58;;;;;;;4.3;3.2;;;;;;;8.31;63.28027;927.4606;;;;
2021/11/25 12:31:35;;;;;;;3.7;2.8;;;;;;;8.21;62.95801;927.4119;;;;
2021/11/25 12:33:52;;;;;;;4.8;3.8;;;;;;;7.88;64.88574;927.3748;;;;
2021/11/25 12:36:18;;;;;;;6.9;3.8;;;;;;;7.39;66.9873;927.4447;;;;
2021/11/25 12:38:43;;;;;;;6.2;4;;;;;;;7.17;67.73535;927.3477;;;;
2021/11/25 12:41:09;;;;;;;6.8;5;;;;;;;7.53;67.09961;927.291;;;;
2021/11/25 12:43:33;;;;;;;8.1;5.5;;;;;;;7.56;66.75195;927.2419;;;;
2021/11/25 12:46:00;;;;;;;7.6;5.4;;;;;;;8.06;65.20703;927.1827;;;;
2021/11/25 12:48:25;;;;;;;7.8;5;;;;;;;8.54;63.31445;927.1771;;;;
2021/11/25 12:50:55;;;;;;;7.8;5.2;;;;;;;8.73;63.62598;927.124;;;;
2021/11/25 12:53:20;;;;;;;10.3;6.5;;;;;;;8.34;65.7832;927.1476;;;;
2021/11/25 12:55:44;;;;;;;8.8;5.9;;;;;;;8.75;64.52637;927.1398;;;;
2021/11/25 12:58:09;;;;;;;9.2;6;;;;;;;8.7;65.08789;927.2042;;;;
2021/11/25 13:00:37;;;;;;;8.9;6;;;;;;;9.03;64.19434;927.0977;;;;
2021/11/25 13:03:02;;;;;;;6.9;5.1;;;;;;;8.6;63.9707;927.0842;;;;
2021/11/25 13:05:27;;;;;;;5.9;4;;;;;;;8.12;64.5459;927.0566;;;;
2021/11/25 13:07:52;;;;;;;4.9;3.8;;;;;;;8.58;64.03516;927.0764;;;;
2021/11/25 13:10:17;;;;;;;4.6;3.5;;;;;;;8.68;63.74414;927.0463;;;;
2021/11/25 13:12:42;;;;;;;4.9;4.1;;;;;;;8.53;64.65332;927.0486;;;;
2021/11/25 13:15:07;;;;;;;7.3;5;;;;;;;8.02;66.3125;927.139;;;;
2021/11/25 13:17:34;;;;;;;8.5;5.2;;;;;;;7.84;67.45508;927.1283;;;;
2021/11/25 13:20:02;;;;;;;7.3;5.1;;;;;;;8.05;67.46484;927.1755;;;;
2021/11/25 13:22:29;;;;;;;7.5;5.3;;;;;;;8.06;67.52344;927.1716;;;;
2021/11/25 13:25:11;;;;;;;8;5.4;;;;;;;7.93;67.59375;927.2012;;;;
2021/11/25 13:30:14;;;;;;;7.3;4.9;;;;;;;8.34;66.8623;927.1651;;;;
2021/11/25 13:32:40;;;;;;;5.7;4.2;;;;;;;8.33;67.00879;927.1442;;;;
2021/11/25 13:35:05;;;;;;;5.5;4;;;;;;;8.27;66.56738;927.1592;;;;
2021/11/25 13:37:30;;;;;;;6.7;4.4;;;;;;;8.94;65.18066;927.2317;;;;
2021/11/25 13:39:58;;;;;;;5.9;4.2;;;;;;;9.7;62.16211;927.1401;;;;
2021/11/25 13:42:20;;;;;;;5.6;4.3;;;;;;;9.69;62.33301;927.1116;;;;
2021/11/25 13:44:46;;;;;;;7.6;5;;;;;;;9.05;64.50391;927.1372;;;;
2021/11/25 13:47:11;;;;;;;7.5;5.1;;;;;;;8.53;66.74414;927.2383;;;;
2021/11/25 13:49:36;;;;;;;7.9;4.9;;;;;;;9.06;64.96094;927.2047;;;;
2021/11/25 13:52:02;;;;;;;5.7;4.7;;;;;;;9.34;63.6709;927.1555;;;;
2021/11/25 13:54:31;;;;;;;6.5;4.7;;;;;;;9.76;62.35352;927.1334;;;;
2021/11/25 13:57:00;;;;;;;7.8;5.1;;;;;;;9.72;62.07422;927.1099;;;;
2021/11/25 13:59:23;;;;;;;5.7;4.4;;;;;;;9.16;63.23438;927.1893;;;;
2021/11/25 14:01:50;;;;;;;5.6;4.4;;;;;;;8.76;64.99414;927.2827;;;;
2021/11/25 14:04:15;;;;;;;5.4;4.5;;;;;;;8.41;66.08984;927.1844;;;;
2021/11/25 14:06:41;;;;;;;9;5.3;;;;;;;7.82;68.41504;927.3152;;;;
2021/11/25 14:09:08;;;;;;;7.3;5.1;;;;;;;7.61;69.63086;927.2004;;;;
2021/11/25 14:11:36;;;;;;;7.3;5.3;;;;;;;7.4;70.45703;927.2951;;;;
2021/11/25 14:14:04;;;;;;;7.2;5.1;;;;;;;7.32;71.14648;927.3185;;;;
2021/11/25 14:16:30;;;;;;;12.2;5.9;;;;;;;6.91;72.60645;927.3525;;;;
2021/11/25 14:18:58;;;;;;;8.8;6.2;;;;;;;6.44;74.7334;927.4163;;;;
2021/11/25 14:21:23;;;;;;;9.2;6.7;;;;;;;6.29;75.83594;927.3272;;;;
2021/11/25 14:23:54;;;;;;;8.2;6.3;;;;;;;6.22;76.0752;927.4666;;;;
2021/11/25 14:26:31;;;;;;;10.4;6.5;;;;;;;5.68;77.77344;927.395;;;;
2021/11/25 14:31:09;;;;;;;8.8;6.7;;;;;;;5.02;81;927.5595;;;;
2021/11/25 14:33:34;;;;;;;9.4;6.3;;;;;;;4.8;82.11914;927.5908;;;;
2021/11/25 14:36:00;;;;;;;10.1;7.3;;;;;;;4.78;82.24902;927.5849;;;;
2021/11/25 14:38:25;;;;;;;10.9;7.8;;;;;;;4.61;82.71289;927.622;;;;
2021/11/25 14:40:50;;;;;;;11.4;7.4;;;;;;;4.69;82.3457;927.6287;;;;
2021/11/25 14:43:15;;;;;;;11.2;7.6;;;;;;;4.71;82.25977;927.6574;;;;
2021/11/25 14:45:40;;;;;;;11;7.4;;;;;;;4.76;82.04297;927.6178;;;;
2021/11/25 14:48:05;;;;;;;10.8;7.5;;;;;;;4.84;81.59668;927.6011;;;;
2021/11/25 14:50:32;;;;;;;11.3;7.8;;;;;;;4.91;81.20508;927.6344;;;;
2021/11/25 14:52:57;;;;;;;12.4;7.3;;;;;;;4.96;80.9668;927.62;;;;
2021/11/25 14:55:23;;;;;;;11.3;7.6;;;;;;;4.96;81.0332;927.6602;;;;
2021/11/25 14:57:50;;;;;;;12;7.7;;;;;;;4.8;81.80371;927.7137;;;;
2021/11/25 15:00:15;;;;;;;11.3;8.2;;;;;;;4.83;81.69629;927.7327;;;;
2021/11/25 15:02:41;;;;;;;14;9.8;;;;;;;4.65;82.38281;927.6944;;;;
2021/11/25 15:05:06;;;;;;;12.1;7.6;;;;;;;4.65;82.24902;927.6984;;;;
2021/11/25 15:07:32;;;;;;;11.1;7.9;;;;;;;4.74;81.91504;927.657;;;;
2021/11/25 15:09:57;;;;;;;12.5;7.8;;;;;;;4.6;82.22754;927.6169;;;;
2021/11/25 15:12:22;;;;;;;11.2;7.9;;;;;;;4.52;82.51563;927.5694;;;;
2021/11/25 15:14:49;;;;;;;13.7;8.1;;;;;;;4.5;82.55664;927.6589;;;;
2021/11/25 15:17:16;;;;;;;11.7;7.8;;;;;;;4.41;82.89941;927.6733;;;;
2021/11/25 15:19:46;;;;;;;11.3;7.9;;;;;;;4.36;83.21777;927.6218;;;;
2021/11/25 15:22:11;;;;;;;16.4;8.8;;;;;;;4.3;83.47559;927.6359;;;;
2021/11/25 15:24:36;;;;;;;12.4;8.2;;;;;;;;;;;;;
2021/11/25 15:27:01;;;;;;;13.4;8.6;;;;;;;;;;;;;
2021/11/25 15:29:27;;;;;;;11.7;8.5;;;;;;;;;;;;;
2021/11/25 15:31:53;;;;;;;15.6;8.9;;;;;;;;;;;;;
2021/11/25 15:34:18;;;;;;;13.3;9.4;;;;;;;;;;;;;
2021/11/25 15:36:43;;;;;;;13.2;9;;;;;;;;;;;;;
2021/11/25 15:39:09;;;;;;;15;9.7;;;;;;;;;;;;;
2021/11/25 15:41:34;;;;;;;15.4;9.9;;;;;;;;;;;;;
2021/11/25 15:44:00;;;;;;;16.1;10.1;;;;;;;;;;;;;
2021/11/25 15:46:27;;;;;;;16.7;10.1;;;;;;;;;;;;;
2021/11/25 15:48:52;;;;;;;16;9.9;;;;;;;;;;;;;
2021/11/25 15:51:19;;;;;;;17.4;10.9;;;;;;;;;;;;;
2021/11/25 15:53:44;;;;;;;19.9;11.2;;;;;;;;;;;;;
2021/11/25 15:56:09;;;;;;;21.3;13.3;;;;;;;;;;;;;
2021/11/25 15:58:35;;;;;;;19;12.1;;;;;;;;;;;;;
2021/11/25 16:01:02;;;;;;;20.8;11.2;;;;;;;;;;;;;
2021/11/25 16:03:27;;;;;;;16.2;11.4;;;;;;;;;;;;;
2021/11/25 16:05:52;;;;;;;19.8;11.1;;;;;;;;;;;;;
2021/11/25 16:08:18;;;;;;;17.2;11.5;;;;;;;;;;;;;
2021/11/25 16:10:43;;;;;;;20;11.4;;;;;;;;;;;;;
2021/11/25 16:13:10;;;;;;;17.1;11.1;;;;;;;;;;;;;
2021/11/25 16:15:34;;;;;;;20.3;11.9;;;;;;;;;;;;;
2021/11/25 16:18:00;;;;;;;18.1;11.8;;;;;;;;;;;;;
2021/11/25 16:20:25;;;;;;;15.8;11;;;;;;;;;;;;;
2021/11/25 16:22:50;;;;;;;17;10.7;;;;;;;;;;;;;
2021/11/25 16:25:16;;;;;;;18.3;12.2;;;;;;;;;;;;;
2021/11/25 16:27:42;;;;;;;18.2;11.1;;;;;;;;;;;;;
2021/11/25 16:30:07;;;;;;;18;11.2;;;;;;;;;;;;;
2021/11/25 16:32:33;;;;;;;17.4;11.4;;;;;;;;;;;;;
2021/11/25 16:34:58;;;;;;;19.6;11.5;;;;;;;;;;;;;